Time;durP1;ratioP1;P1;durP2;ratioP2;P2;SDS_P1;SDS_P2;PMS_P1;PMS_P2;Temp;Humidity;BMP_temperature;BMP_pressure;BME280_temperature;BME280_humidity;BME280_pressure;Samples;Min_cycle;Max_cycle;Signal;HPM_P1;HPM_P2
2021/12/10 00:00:44;;;;;;;17.85;13.68;;;6.90;99.90;;;;;;6095128;23;20014;-67
2021/12/10 00:03:16;;;;;;;21.42;15.18;;;6.90;99.90;;;;;;6069900;23;20015;-68
2021/12/10 00:05:56;;;;;;;18.77;14.05;;;7.00;99.90;;;;;;6094534;23;20021;-69
2021/12/10 00:08:25;;;;;;;;;;;7.00;99.90;;;;;;6095458;23;20014;-68
2021/12/10 00:10:56;;;;;;;16.77;12.48;;;7.10;99.90;;;;;;6094723;23;19913;-67
2021/12/10 00:13:23;;;;;;;;;;;7.10;99.90;;;;;;6095611;23;20015;-68
2021/12/10 00:15:54;;;;;;;15.75;12.70;;;7.10;99.90;;;;;;6069058;23;20239;-69
2021/12/10 00:18:30;;;;;;;19.20;13.40;;;7.10;99.90;;;;;;6095874;23;20025;-65
2021/12/10 00:21:00;;;;;;;16.15;13.10;;;7.30;99.90;;;;;;6095939;23;20018;-70
2021/12/10 00:23:30;;;;;;;17.58;13.60;;;7.40;99.90;;;;;;6070123;23;20066;-66
2021/12/10 00:25:58;;;;;;;18.50;12.75;;;7.40;99.90;;;;;;6094532;23;20018;-69
2021/12/10 00:28:33;;;;;;;15.68;12.52;;;7.40;99.90;;;;;;6070042;23;20707;-69
2021/12/10 00:31:31;;;;;;;16.10;12.30;;;7.40;99.90;;;;;;6095261;23;20042;-66
2021/12/10 00:34:30;;;;;;;15.05;12.18;;;7.20;99.90;;;;;;6087888;23;20090;-68
2021/12/10 00:37:02;;;;;;;18.60;13.38;;;7.20;99.90;;;;;;6094171;23;20361;-66
2021/12/10 00:39:41;;;;;;;18.17;14.13;;;7.30;99.90;;;;;;6096857;23;20018;-68
2021/12/10 00:42:14;;;;;;;19.08;13.35;;;7.20;99.90;;;;;;6095999;23;20642;-67
2021/12/10 00:44:42;;;;;;;17.80;13.75;;;7.10;99.90;;;;;;6095860;23;20093;-72
2021/12/10 00:47:09;;;;;;;18.85;13.75;;;7.00;99.90;;;;;;6069383;23;20101;-68
2021/12/10 00:49:37;;;;;;;16.05;13.18;;;7.10;99.90;;;;;;6095817;23;20019;-71
2021/12/10 00:52:06;;;;;;;18.40;13.80;;;7.10;99.90;;;;;;6095273;23;20093;-69
2021/12/10 00:54:33;;;;;;;17.90;12.50;;;7.20;99.90;;;;;;6095815;23;20335;-69
2021/12/10 00:57:03;;;;;;;16.38;12.48;;;7.20;99.90;;;;;;6095289;23;20061;-72
2021/12/10 00:59:31;;;;;;;16.25;12.20;;;7.20;99.90;;;;;;6095516;23;20018;-68
2021/12/10 01:01:59;;;;;;;14.57;11.45;;;7.30;99.90;;;;;;6094865;23;20017;-70
2021/12/10 01:04:31;;;;;;;14.82;12.10;;;7.30;99.90;;;;;;6095269;23;20022;-77
2021/12/10 01:07:02;;;;;;;17.08;12.32;;;7.30;99.90;;;;;;6095187;23;20088;-69
2021/12/10 01:09:33;;;;;;;14.15;11.00;;;7.30;99.90;;;;;;6095463;23;20014;-69
2021/12/10 01:12:08;;;;;;;;;;;7.30;99.90;;;;;;6095396;23;20440;-73
2021/12/10 01:26:11;;;;;;;20.15;14.27;;;7.50;99.90;;;;;;6095104;23;20343;-68
2021/12/10 01:28:44;;;;;;;22.83;14.98;;;7.40;99.90;;;;;;6094135;23;20089;-67
2021/12/10 01:31:12;;;;;;;20.95;15.00;;;7.30;99.90;;;;;;6095408;23;20045;-70
2021/12/10 01:33:41;;;;;;;24.77;17.02;;;7.40;99.90;;;;;;6095925;23;20016;-68
2021/12/10 01:36:09;;;;;;;27.63;19.42;;;7.40;99.90;;;;;;6096085;23;20014;-66
2021/12/10 01:38:40;;;;;;;31.00;19.67;;;7.30;99.90;;;;;;6070856;23;20018;-69
2021/12/10 01:41:12;;;;;;;29.52;20.00;;;7.30;99.90;;;;;;6095937;23;20078;-68
2021/12/10 01:43:42;;;;;;;26.30;17.75;;;7.40;99.90;;;;;;6095834;23;20038;-69
2021/12/10 01:46:14;;;;;;;24.15;17.48;;;7.30;99.90;;;;;;6096226;23;20018;-65
2021/12/10 01:48:45;;;;;;;28.05;19.13;;;7.40;99.90;;;;;;6095893;23;20066;-68
2021/12/10 01:51:17;;;;;;;27.25;18.48;;;7.40;99.90;;;;;;6095727;23;20077;-67
2021/12/10 01:53:47;;;;;;;28.98;20.27;;;7.40;99.90;;;;;;6070503;23;20018;-68
2021/12/10 01:56:18;;;;;;;31.57;22.17;;;7.30;99.90;;;;;;6095818;23;20105;-68
2021/12/10 01:58:47;;;;;;;31.73;20.75;;;7.20;99.90;;;;;;6095852;23;20712;-67
2021/12/10 02:01:22;;;;;;;29.70;20.08;;;7.30;99.90;;;;;;6095622;23;20041;-67
2021/12/10 02:03:53;;;;;;;32.17;20.73;;;7.40;99.90;;;;;;6095982;23;20038;-68
2021/12/10 02:06:24;;;;;;;32.13;20.75;;;7.40;99.90;;;;;;6096069;23;20077;-64
2021/12/10 02:08:52;;;;;;;31.13;20.50;;;7.40;99.90;;;;;;6094029;23;20029;-69
2021/12/10 02:11:20;;;;;;;27.77;19.30;;;7.40;99.90;;;;;;6095528;23;20042;-69
2021/12/10 02:13:48;;;;;;;29.38;20.02;;;7.40;99.90;;;;;;6095744;23;20093;-67
2021/12/10 02:16:15;;;;;;;30.65;19.88;;;7.40;99.90;;;;;;6095735;23;20113;-80
2021/12/10 02:18:43;;;;;;;29.85;20.15;;;7.30;99.90;;;;;;6095863;23;20014;-72
2021/12/10 02:21:10;;;;;;;30.20;19.70;;;7.40;99.90;;;;;;6095685;23;20090;-77
2021/12/10 02:23:56;;;;;;;28.20;19.70;;;7.40;99.90;;;;;;6095686;23;20014;-70
2021/12/10 02:26:34;;;;;;;29.30;19.20;;;7.40;99.90;;;;;;6095728;23;20019;-67
2021/12/10 02:29:05;;;;;;;27.40;19.48;;;7.50;99.90;;;;;;6095724;23;20034;-68
2021/12/10 02:31:32;;;;;;;;;;;7.40;99.90;;;;;;6096310;23;20327;-67
2021/12/10 02:34:01;;;;;;;26.67;18.15;;;7.30;99.90;;;;;;6095172;23;19913;-67
2021/12/10 02:36:29;;;;;;;27.35;18.83;;;7.40;99.90;;;;;;6095601;23;20325;-66
2021/12/10 02:38:57;;;;;;;28.42;18.17;;;7.40;99.90;;;;;;6095812;23;20020;-67
2021/12/10 02:41:30;;;;;;;27.33;18.38;;;7.50;99.90;;;;;;6094895;23;20077;-66
2021/12/10 02:44:00;;;;;;;25.40;18.50;;;7.50;99.90;;;;;;6095586;23;20440;-67
2021/12/10 02:46:28;;;;;;;28.13;18.77;;;7.50;99.90;;;;;;6095712;23;20042;-66
2021/12/10 02:48:56;;;;;;;26.13;18.95;;;7.40;99.90;;;;;;6095318;23;20014;-68
2021/12/10 02:51:24;;;;;;;26.25;19.67;;;7.40;99.90;;;;;;6095317;23;20089;-68
2021/12/10 02:53:52;;;;;;;24.38;17.70;;;7.00;99.90;;;;;;6095609;23;20089;-68
2021/12/10 02:56:22;;;;;;;27.95;19.30;;;6.60;99.90;;;;;;6095080;23;20049;-76
2021/12/10 02:58:54;;;;;;;27.17;20.02;;;6.70;99.90;;;;;;6095179;23;20097;-71
2021/12/10 03:01:34;;;;;;;29.45;19.92;;;6.70;99.90;;;;;;6095445;23;20014;-67
2021/12/10 03:04:04;;;;;;;26.27;19.60;;;6.80;99.90;;;;;;6095614;23;20517;-68
2021/12/10 03:06:31;;;;;;;30.33;18.25;;;6.80;99.90;;;;;;6070022;23;20083;-68
2021/12/10 03:08:59;;;;;;;25.70;18.25;;;7.00;99.90;;;;;;6069787;23;20365;-77
2021/12/10 03:11:34;;;;;;;26.08;18.17;;;6.80;99.90;;;;;;6094938;23;20045;-69
2021/12/10 03:14:09;;;;;;;26.67;17.40;;;6.90;99.90;;;;;;6095148;23;20026;-69
2021/12/10 03:16:40;;;;;;;21.85;16.30;;;6.80;99.90;;;;;;6095517;23;20014;-65
2021/12/10 03:19:08;;;;;;;24.17;17.35;;;7.00;99.90;;;;;;6095096;23;20085;-66
2021/12/10 03:21:38;;;;;;;21.27;16.58;;;6.80;99.90;;;;;;6095322;23;20049;-69
2021/12/10 03:24:06;;;;;;;23.13;17.08;;;6.80;99.90;;;;;;6095191;23;20040;-69
2021/12/10 03:26:34;;;;;;;23.65;18.02;;;6.70;99.90;;;;;;6094876;23;20395;-67
2021/12/10 03:29:01;;;;;;;20.85;16.42;;;6.80;99.90;;;;;;6094874;23;20025;-67
2021/12/10 03:31:29;;;;;;;26.77;17.45;;;6.80;99.90;;;;;;6095192;23;20085;-67
2021/12/10 03:33:58;;;;;;;25.45;17.30;;;6.80;99.90;;;;;;6095030;23;20456;-68
2021/12/10 03:36:26;;;;;;;22.45;16.13;;;6.80;99.90;;;;;;6095042;23;20332;-67
2021/12/10 03:38:54;;;;;;;21.30;16.02;;;6.80;99.90;;;;;;6094940;23;20018;-67
2021/12/10 03:41:22;;;;;;;22.33;16.77;;;6.90;99.90;;;;;;6094891;23;20018;-66
2021/12/10 03:43:53;;;;;;;23.70;17.45;;;6.90;99.90;;;;;;6095198;23;20046;-65
2021/12/10 03:46:23;;;;;;;23.88;16.63;;;6.90;99.90;;;;;;6094997;23;20081;-66
2021/12/10 03:48:51;;;;;;;24.15;17.00;;;6.80;99.90;;;;;;6094689;23;20044;-65
2021/12/10 03:51:22;;;;;;;25.33;16.85;;;6.80;99.90;;;;;;6069564;23;20049;-67
2021/12/10 03:53:50;;;;;;;;;;;6.90;99.90;;;;;;6095449;23;20106;-67
2021/12/10 03:56:20;;;;;;;20.02;14.95;;;7.00;99.90;;;;;;6094834;23;20243;-65
2021/12/10 03:58:49;;;;;;;22.65;16.58;;;7.00;99.90;;;;;;6095038;23;20085;-67
2021/12/10 04:01:23;;;;;;;25.88;17.25;;;7.00;99.90;;;;;;6094501;23;20030;-66
2021/12/10 04:03:52;;;;;;;23.92;17.77;;;7.00;99.90;;;;;;6069523;23;20018;-67
2021/12/10 04:06:20;;;;;;;23.10;16.88;;;6.90;99.90;;;;;;6094937;23;20471;-65
2021/12/10 04:08:48;;;;;;;27.13;18.02;;;7.00;99.90;;;;;;6069104;23;20122;-66
2021/12/10 04:11:17;;;;;;;22.10;16.52;;;7.00;99.90;;;;;;6094810;23;20018;-65
2021/12/10 04:13:47;;;;;;;19.02;15.95;;;6.90;99.90;;;;;;6095091;23;20037;-66
2021/12/10 04:16:17;;;;;;;24.25;17.58;;;7.00;99.90;;;;;;6069268;23;20726;-65
2021/12/10 04:18:46;;;;;;;21.77;15.88;;;7.10;99.90;;;;;;6094783;23;20038;-66
2021/12/10 04:21:15;;;;;;;25.13;16.67;;;7.10;99.90;;;;;;6095010;23;20014;-67
2021/12/10 04:23:43;;;;;;;18.95;15.50;;;7.00;99.90;;;;;;6094533;23;20018;-66
2021/12/10 04:26:13;;;;;;;22.80;16.27;;;7.00;99.90;;;;;;6094763;23;20041;-67
2021/12/10 04:28:41;;;;;;;26.03;17.83;;;6.90;99.90;;;;;;6094775;23;20380;-67
2021/12/10 04:31:09;;;;;;;22.20;16.05;;;6.80;99.90;;;;;;6094984;23;20332;-65
2021/12/10 04:33:37;;;;;;;23.70;17.52;;;6.90;99.90;;;;;;6095006;23;20018;-66
2021/12/10 04:36:07;;;;;;;23.40;16.15;;;6.90;99.90;;;;;;6094709;23;20014;-66
2021/12/10 04:38:35;;;;;;;24.35;15.85;;;6.90;99.90;;;;;;6094568;23;20089;-66
2021/12/10 04:41:07;;;;;;;20.00;15.40;;;6.90;99.90;;;;;;6094788;23;20297;-66
2021/12/10 04:43:38;;;;;;;21.98;15.48;;;6.90;99.90;;;;;;6094812;23;20020;-67
2021/12/10 04:46:05;;;;;;;;;;;6.90;99.90;;;;;;6095107;23;20327;-67
2021/12/10 04:49:19;;;;;;;20.83;14.35;;;6.70;99.90;;;;;;6094989;23;19988;-69
2021/12/10 04:51:52;;;;;;;21.17;15.35;;;6.80;99.90;;;;;;5977984;24;20083;-75
2021/12/10 04:54:22;;;;;;;24.00;15.77;;;6.80;99.90;;;;;;6077316;23;20313;-67
2021/12/10 04:56:52;;;;;;;23.73;15.73;;;6.60;99.90;;;;;;6094694;23;20017;-74
2021/12/10 04:59:20;;;;;;;20.47;16.20;;;6.60;99.90;;;;;;6094987;23;20022;-70
2021/12/10 05:01:50;;;;;;;19.77;14.73;;;6.70;99.90;;;;;;6094800;23;20022;-74
2021/12/10 05:04:17;;;;;;;23.17;15.40;;;6.70;99.90;;;;;;6071166;23;20018;-76
2021/12/10 05:06:45;;;;;;;28.92;17.48;;;6.80;99.90;;;;;;6096039;23;20383;-75
2021/12/10 05:09:14;;;;;;;26.17;18.08;;;6.90;99.90;;;;;;6096416;23;20014;-72
2021/12/10 05:11:41;;;;;;;25.15;17.52;;;6.90;99.90;;;;;;6096322;23;20044;-75
2021/12/10 05:14:09;;;;;;;27.88;18.52;;;6.90;99.90;;;;;;6096274;23;20018;-66
2021/12/10 05:16:42;;;;;;;26.63;19.08;;;6.90;99.90;;;;;;6096432;23;20065;-72
2021/12/10 05:19:16;;;;;;;30.70;18.88;;;6.80;99.90;;;;;;6096644;23;20018;-72
2021/12/10 05:21:46;;;;;;;25.80;18.23;;;6.70;99.90;;;;;;6096253;23;20041;-68
2021/12/10 05:24:14;;;;;;;26.70;18.38;;;6.80;99.90;;;;;;6096199;23;20089;-67
2021/12/10 05:26:44;;;;;;;23.25;17.63;;;6.90;99.90;;;;;;6095851;23;20022;-67
2021/12/10 05:29:12;;;;;;;25.33;17.17;;;6.80;99.90;;;;;;6071324;23;20085;-65
2021/12/10 05:31:43;;;;;;;24.92;18.48;;;6.60;99.90;;;;;;6096147;23;20089;-67
2021/12/10 05:34:15;;;;;;;28.73;18.63;;;6.60;99.90;;;;;;6096158;23;20014;-67
2021/12/10 05:36:44;;;;;;;23.90;17.80;;;6.70;99.90;;;;;;6070849;23;20018;-65
2021/12/10 05:39:14;;;;;;;24.38;17.90;;;6.80;99.90;;;;;;6096233;23;20097;-66
2021/12/10 05:41:42;;;;;;;24.30;17.80;;;6.80;99.90;;;;;;6096045;23;20411;-65
2021/12/10 05:44:10;;;;;;;23.58;16.17;;;6.70;99.90;;;;;;6096344;23;20118;-67
2021/12/10 05:46:38;;;;;;;25.20;18.80;;;6.70;99.90;;;;;;6095808;23;20061;-67
2021/12/10 05:49:06;;;;;;;28.38;19.00;;;6.60;99.90;;;;;;6096158;23;20101;-69
2021/12/10 05:51:35;;;;;;;66.55;38.42;;;6.70;99.90;;;;;;6095846;23;20061;-68
2021/12/10 05:54:04;;;;;;;41.70;27.33;;;6.80;99.90;;;;;;6095895;23;20362;-66
2021/12/10 05:56:31;;;;;;;29.90;21.48;;;6.70;99.90;;;;;;6095900;23;20014;-66
2021/12/10 05:58:59;;;;;;;44.63;27.45;;;6.70;99.90;;;;;;6096062;23;20019;-67
2021/12/10 06:01:27;;;;;;;75.55;42.33;;;6.80;99.90;;;;;;6095666;23;20011;-66
2021/12/10 06:03:54;;;;;;;35.38;23.70;;;6.70;99.90;;;;;;6095772;23;20336;-67
2021/12/10 06:06:25;;;;;;;30.30;20.83;;;6.70;99.90;;;;;;6095615;23;20029;-67
2021/12/10 06:08:54;;;;;;;28.80;19.70;;;6.60;99.90;;;;;;6095803;23;20010;-69
2021/12/10 06:11:24;;;;;;;30.65;19.65;;;6.50;99.90;;;;;;6095599;23;20314;-67
2021/12/10 06:13:52;;;;;;;28.65;19.80;;;6.50;99.90;;;;;;6070193;23;20106;-70
2021/12/10 06:16:20;;;;;;;33.53;21.83;;;6.50;99.90;;;;;;6095381;23;20081;-68
2021/12/10 06:18:48;;;;;;;35.28;22.92;;;6.30;99.90;;;;;;6070322;23;20026;-67
2021/12/10 06:21:16;;;;;;;32.67;22.45;;;5.80;99.90;;;;;;6095598;23;20085;-65
2021/12/10 06:23:44;;;;;;;33.42;21.83;;;6.10;99.90;;;;;;6095759;23;20069;-67
2021/12/10 06:26:11;;;;;;;30.88;20.58;;;6.30;99.90;;;;;;6095422;23;20018;-74
2021/12/10 06:28:44;;;;;;;30.65;21.63;;;6.40;99.90;;;;;;6070740;23;20034;-77
2021/12/10 06:31:15;;;;;;;35.58;21.58;;;6.40;99.90;;;;;;6070173;23;20045;-66
2021/12/10 06:33:43;;;;;;;34.00;21.63;;;6.30;99.90;;;;;;6095083;23;20022;-64
2021/12/10 06:36:11;;;;;;;34.38;20.60;;;6.20;99.90;;;;;;6095286;23;20042;-65
2021/12/10 06:38:39;;;;;;;95.38;55.08;;;6.30;99.90;;;;;;6095417;23;20061;-68
2021/12/10 06:41:08;;;;;;;87.50;50.70;;;6.60;99.90;;;;;;6095153;23;20014;-67
2021/12/10 06:43:35;;;;;;;36.13;24.38;;;7.10;99.90;;;;;;6070273;23;20093;-67
2021/12/10 06:46:06;;;;;;;33.55;21.65;;;6.60;99.90;;;;;;6095797;23;20082;-66
2021/12/10 06:48:35;;;;;;;32.67;22.00;;;6.70;99.90;;;;;;6070407;23;20018;-70
2021/12/10 06:51:09;;;;;;;31.05;22.05;;;6.80;99.90;;;;;;6095017;23;20081;-66
2021/12/10 06:53:41;;;;;;;30.80;20.70;;;6.70;99.90;;;;;;6095417;23;20014;-67
2021/12/10 06:56:09;;;;;;;29.77;21.05;;;6.40;99.90;;;;;;6093437;23;20018;-66
2021/12/10 06:58:37;;;;;;;35.17;22.23;;;6.70;99.90;;;;;;6070445;23;20373;-77
2021/12/10 07:01:12;;;;;;;33.55;23.20;;;6.80;99.90;;;;;;6095293;23;20021;-73
2021/12/10 07:03:41;;;;;;;31.17;22.13;;;6.90;99.90;;;;;;6095068;23;20038;-68
2021/12/10 07:06:09;;;;;;;29.33;20.55;;;6.90;99.90;;;;;;6095432;23;20057;-65
2021/12/10 07:08:39;;;;;;;26.92;19.75;;;6.80;99.90;;;;;;6095305;23;20011;-69
2021/12/10 07:11:11;;;;;;;27.80;20.02;;;6.20;99.90;;;;;;6095254;23;20379;-69
2021/12/10 07:13:41;;;;;;;25.05;18.85;;;6.40;99.90;;;;;;6095050;23;20308;-66
2021/12/10 07:16:09;;;;;;;;;;;6.80;99.90;;;;;;6095463;23;20022;-66
2021/12/10 07:18:37;;;;;;;22.30;16.80;;;6.90;99.90;;;;;;6095402;23;19913;-67
2021/12/10 07:21:06;;;;;;;24.75;17.90;;;6.80;99.90;;;;;;6095170;23;20010;-67
2021/12/10 07:23:34;;;;;;;25.65;17.45;;;7.00;99.90;;;;;;6094752;23;20018;-66
2021/12/10 07:26:01;;;;;;;26.27;17.10;;;7.10;99.90;;;;;;6093919;23;20139;-66
2021/12/10 07:28:29;;;;;;;28.15;19.40;;;7.10;99.90;;;;;;6093202;23;20022;-71
2021/12/10 07:30:57;;;;;;;28.80;19.15;;;7.30;99.90;;;;;;6092985;23;20034;-66
2021/12/10 07:33:25;;;;;;;28.60;19.25;;;7.10;99.90;;;;;;6087964;23;20045;-70
2021/12/10 07:35:52;;;;;;;29.98;19.65;;;7.00;99.90;;;;;;6089400;23;20035;-68
2021/12/10 07:38:20;;;;;;;27.35;18.35;;;7.20;99.90;;;;;;6091665;23;20042;-68
2021/12/10 07:40:48;;;;;;;28.23;18.92;;;7.30;99.90;;;;;;6092300;23;20014;-68
2021/12/10 07:43:19;;;;;;;29.77;18.75;;;7.50;99.90;;;;;;6094582;23;20390;-69
2021/12/10 07:45:49;;;;;;;27.83;17.88;;;7.60;99.90;;;;;;6069669;23;20093;-68
2021/12/10 07:48:19;;;;;;;27.57;18.80;;;7.70;99.90;;;;;;6094456;23;20014;-68
2021/12/10 07:50:53;;;;;;;27.58;19.10;;;7.90;99.90;;;;;;6095215;23;20388;-68
2021/12/10 07:53:21;;;;;;;29.20;18.95;;;7.90;99.90;;;;;;6094160;23;20018;-69
2021/12/10 07:55:50;;;;;;;29.25;19.92;;;7.80;99.90;;;;;;6094938;23;20040;-69
2021/12/10 07:58:18;;;;;;;29.75;19.35;;;7.90;99.90;;;;;;6094458;23;20081;-67
2021/12/10 08:00:47;;;;;;;27.50;20.20;;;8.00;99.90;;;;;;6094770;23;20021;-68
2021/12/10 08:03:15;;;;;;;33.50;20.23;;;7.90;99.90;;;;;;6094429;23;20024;-67
2021/12/10 08:05:43;;;;;;;29.63;20.00;;;7.90;99.90;;;;;;6094838;23;20021;-68
2021/12/10 08:08:11;;;;;;;30.95;20.13;;;8.00;99.90;;;;;;6094575;23;20026;-68
2021/12/10 08:10:42;;;;;;;31.33;21.67;;;8.20;99.90;;;;;;6069061;23;20037;-67
2021/12/10 08:13:09;;;;;;;;;;;8.10;99.90;;;;;;6094811;23;20018;-67
2021/12/10 08:15:37;;;;;;;30.63;20.50;;;8.00;99.90;;;;;;6094792;23;20219;-70
2021/12/10 08:18:06;;;;;;;29.60;21.65;;;8.10;99.90;;;;;;6094650;23;20014;-68
2021/12/10 08:20:35;;;;;;;33.42;21.70;;;8.30;99.90;;;;;;6094968;23;20044;-72
2021/12/10 08:23:03;;;;;;;31.27;20.45;;;8.20;99.90;;;;;;6094307;23;20018;-67
2021/12/10 08:25:31;;;;;;;29.45;19.88;;;8.10;99.90;;;;;;6095254;23;20090;-68
2021/12/10 08:27:58;;;;;;;28.90;20.23;;;8.20;99.90;;;;;;6094770;23;20023;-69
2021/12/10 08:30:28;;;;;;;35.58;22.38;;;8.40;99.90;;;;;;6094872;23;20010;-68
2021/12/10 08:32:57;;;;;;;29.60;19.00;;;8.70;99.90;;;;;;6094495;23;20018;-69
2021/12/10 08:35:29;;;;;;;30.45;19.40;;;8.70;99.90;;;;;;6094742;23;20025;-68
2021/12/10 08:38:00;;;;;;;30.58;20.48;;;8.80;99.90;;;;;;6069744;23;20018;-78
2021/12/10 08:40:32;;;;;;;35.13;22.55;;;9.10;99.90;;;;;;6096930;23;20033;-79
2021/12/10 08:43:00;;;;;;;30.15;21.10;;;9.00;99.90;;;;;;6095879;23;20018;-68
2021/12/10 08:45:29;;;;;;;30.50;21.60;;;9.00;99.90;;;;;;6096826;23;20025;-82
2021/12/10 08:47:57;;;;;;;28.08;19.95;;;9.10;99.90;;;;;;6096724;23;20385;-67
2021/12/10 08:50:27;;;;;;;30.60;21.35;;;9.30;99.90;;;;;;6096772;23;20089;-78
2021/12/10 08:52:58;;;;;;;35.78;22.23;;;9.40;99.90;;;;;;6096246;23;20015;-66
2021/12/10 08:55:27;;;;;;;31.50;21.33;;;9.60;99.90;;;;;;6097334;23;20025;-79
2021/12/10 08:57:55;;;;;;;33.67;22.67;;;9.80;99.90;;;;;;6096353;23;20041;-69
2021/12/10 09:00:24;;;;;;;35.03;22.08;;;9.80;99.90;;;;;;6096356;23;20014;-72
2021/12/10 09:02:54;;;;;;;37.58;23.15;;;9.70;99.90;;;;;;6096444;23;20010;-80
2021/12/10 09:05:22;;;;;;;35.05;23.08;;;9.80;99.90;;;;;;6096791;23;20072;-65
2021/12/10 09:07:50;;;;;;;37.15;24.00;;;9.70;99.90;;;;;;6096228;23;20447;-65
2021/12/10 09:10:21;;;;;;;36.28;23.52;;;9.80;99.90;;;;;;6096689;23;20025;-64
2021/12/10 09:12:50;;;;;;;36.28;24.90;;;9.60;99.90;;;;;;6096029;23;20343;-76
2021/12/10 09:15:21;;;;;;;38.47;25.80;;;9.50;99.90;;;;;;6096752;23;20034;-68
2021/12/10 09:17:50;;;;;;;;;;;9.40;99.90;;;;;;6096716;23;20019;-64
2021/12/10 09:20:24;;;;;;;37.22;23.85;;;9.20;99.90;;;;;;6096182;23;19917;-79
2021/12/10 09:22:53;;;;;;;37.17;24.98;;;9.30;99.90;;;;;;6096250;23;20014;-65
2021/12/10 09:25:21;;;;;;;37.95;25.27;;;9.30;99.90;;;;;;6096690;23;20011;-66
2021/12/10 09:27:49;;;;;;;39.55;24.90;;;9.50;99.90;;;;;;6095813;23;20089;-76
2021/12/10 09:30:19;;;;;;;39.05;26.10;;;9.50;99.90;;;;;;6096226;23;20081;-67
2021/12/10 09:32:47;;;;;;;36.85;25.85;;;9.70;99.90;;;;;;6095814;23;20018;-80
2021/12/10 09:35:17;;;;;;;40.60;26.23;;;9.90;99.90;;;;;;6096244;23;20046;-78
2021/12/10 09:37:46;;;;;;;38.47;26.65;;;10.00;99.90;;;;;;6096345;23;20384;-68
2021/12/10 09:40:22;;;;;;;40.30;26.15;;;10.00;99.90;;;;;;6096863;23;20069;-69
2021/12/10 09:42:50;;;;;;;39.97;26.63;;;10.30;99.90;;;;;;6096002;23;20022;-77
2021/12/10 09:45:20;;;;;;;38.42;26.52;;;10.30;99.90;;;;;;6090897;23;20010;-68
2021/12/10 09:47:49;;;;;;;38.05;26.63;;;10.60;99.90;;;;;;6095567;23;20010;-72
2021/12/10 09:50:19;;;;;;;40.75;26.80;;;10.70;99.90;;;;;;6095097;23;20025;-65
2021/12/10 09:52:47;;;;;;;38.95;27.95;;;10.70;99.90;;;;;;6070656;23;20029;-66
2021/12/10 09:55:16;;;;;;;40.55;27.17;;;10.50;99.90;;;;;;6096182;23;20018;-69
2021/12/10 09:57:46;;;;;;;35.83;24.27;;;10.00;99.90;;;;;;6095858;23;20309;-68
2021/12/10 10:00:26;;;;;;;38.70;26.88;;;10.30;99.90;;;;;;6071359;23;20467;-72
2021/12/10 10:02:54;;;;;;;38.13;27.83;;;10.20;99.90;;;;;;6095404;23;20023;-66
2021/12/10 10:05:27;;;;;;;41.08;26.92;;;10.00;99.90;;;;;;6070587;23;20424;-70
2021/12/10 10:08:03;;;;;;;37.55;26.52;;;9.60;99.90;;;;;;6095666;23;20023;-69
2021/12/10 10:10:32;;;;;;;32.20;22.45;;;9.40;99.90;;;;;;6095307;23;20405;-69
2021/12/10 10:13:02;;;;;;;35.78;24.20;;;9.30;99.90;;;;;;6070458;23;20124;-69
2021/12/10 10:15:34;;;;;;;31.67;22.83;;;9.50;99.90;;;;;;6095695;23;20029;-67
2021/12/10 10:18:05;;;;;;;32.80;22.08;;;9.70;99.90;;;;;;6095536;23;20071;-74
2021/12/10 10:20:36;;;;;;;28.35;20.80;;;9.50;99.90;;;;;;6095291;23;20737;-71
2021/12/10 10:23:04;;;;;;;;;;;9.30;99.90;;;;;;6096327;23;20090;-77
2021/12/10 10:25:33;;;;;;;30.38;20.05;;;9.60;99.90;;;;;;6069262;23;20047;-69
2021/12/10 10:28:03;;;;;;;30.15;20.33;;;9.60;99.90;;;;;;6094077;23;20333;-69
2021/12/10 10:30:36;;;;;;;30.90;20.03;;;9.60;99.90;;;;;;6094885;23;20377;-75
2021/12/10 10:33:08;;;;;;;27.40;19.40;;;9.80;99.90;;;;;;6095028;23;20058;-72
2021/12/10 10:35:49;;;;;;;26.45;19.05;;;10.40;99.90;;;;;;6094939;23;20499;-69
2021/12/10 10:38:17;;;;;;;30.77;20.40;;;10.70;99.90;;;;;;6094955;23;20014;-68
2021/12/10 10:40:50;;;;;;;29.08;19.20;;;11.00;99.90;;;;;;6095464;23;20014;-67
2021/12/10 10:43:17;;;;;;;28.63;19.58;;;11.30;99.90;;;;;;6095137;23;20011;-74
2021/12/10 10:45:45;;;;;;;27.80;19.38;;;11.00;99.90;;;;;;6095177;23;20014;-75
2021/12/10 10:48:16;;;;;;;27.17;20.38;;;10.50;99.90;;;;;;6094815;23;20011;-68
2021/12/10 10:51:07;;;;;;;24.27;18.80;;;10.60;99.90;;;;;;6095183;23;20041;-73
2021/12/10 10:54:21;;;;;;;27.63;17.63;;;10.40;99.90;;;;;;6094875;23;20045;-68
2021/12/10 10:57:29;;;;;;;26.05;19.63;;;10.60;99.90;;;;;;6037958;23;20022;-70
2021/12/10 11:00:16;;;;;;;27.45;19.30;;;10.20;99.90;;;;;;6094764;23;20018;-67
2021/12/10 11:02:51;;;;;;;25.15;19.15;;;10.40;99.90;;;;;;6094684;23;20370;-67
2021/12/10 11:05:23;;;;;;;26.27;19.85;;;10.70;99.90;;;;;;6094539;23;20037;-70
2021/12/10 11:08:00;;;;;;;26.50;19.45;;;10.90;99.90;;;;;;6094202;23;20050;-66
2021/12/10 11:10:36;;;;;;;26.80;19.83;;;11.30;99.90;;;;;;6094604;23;20076;-66
2021/12/10 11:13:11;;;;;;;26.67;18.70;;;11.50;99.90;;;;;;6094506;23;20029;-74
2021/12/10 11:15:52;;;;;;;28.33;19.98;;;11.10;99.90;;;;;;6094750;23;20037;-67
2021/12/10 11:18:20;;;;;;;27.98;19.77;;;11.00;99.90;;;;;;6069028;23;20459;-74
2021/12/10 11:20:48;;;;;;;26.95;19.25;;;10.80;99.90;;;;;;6095056;23;20505;-70
2021/12/10 11:23:16;;;;;;;29.77;20.08;;;10.80;99.90;;;;;;6094786;23;20085;-68
2021/12/10 11:25:48;;;;;;;25.48;19.42;;;11.20;99.90;;;;;;6069567;23;20085;-66
2021/12/10 11:28:25;;;;;;;25.02;18.52;;;11.30;99.90;;;;;;6095363;23;20286;-67
2021/12/10 11:31:03;;;;;;;24.88;16.90;;;11.50;99.90;;;;;;6069639;23;20085;-65
2021/12/10 11:33:40;;;;;;;23.83;18.08;;;11.00;99.90;;;;;;6094246;23;20101;-65
2021/12/10 11:36:15;;;;;;;22.95;17.95;;;11.00;99.90;;;;;;6094335;23;20325;-69
2021/12/10 11:38:46;;;;;;;27.08;16.83;;;10.90;99.90;;;;;;6095079;23;20038;-65
2021/12/10 11:41:17;;;;;;;22.60;16.48;;;11.00;99.90;;;;;;6095084;23;20015;-68
2021/12/10 11:49:27;;;;;;;20.23;16.27;;;11.20;99.90;;;;;;6094781;23;20026;-66
2021/12/10 11:52:17;;;;;;;22.60;14.63;;;11.50;99.90;;;;;;6034311;23;20025;-67
2021/12/10 11:55:05;;;;;;;19.42;15.38;;;11.60;99.90;;;;;;6094484;23;20109;-69
2021/12/10 11:57:39;;;;;;;25.10;14.93;;;11.60;99.90;;;;;;6094768;23;20385;-74
2021/12/10 12:00:07;;;;;;;21.63;14.85;;;11.60;99.90;;;;;;6095122;23;20089;-67
2021/12/10 12:02:58;;;;;;;22.60;15.73;;;11.60;99.90;;;;;;6094610;23;20018;-76
2021/12/10 12:05:29;;;;;;;21.27;14.63;;;11.60;99.90;;;;;;6095088;23;20586;-68
2021/12/10 12:08:01;;;;;;;24.52;14.48;;;11.60;99.90;;;;;;6094551;23;20066;-70
2021/12/10 12:10:38;;;;;;;20.60;13.93;;;11.50;99.90;;;;;;6094997;23;20041;-72
2021/12/10 12:16:06;;;;;;;20.73;14.93;;;11.90;99.90;;;;;;6092775;23;20034;-65
2021/12/10 12:18:38;;;;;;;26.30;16.20;;;12.10;99.90;;;;;;6093190;23;20038;-69
2021/12/10 12:27:14;;;;;;;20.95;14.15;;;12.20;99.90;;;;;;6093881;23;20018;-70
2021/12/10 12:30:06;;;;;;;21.17;15.55;;;11.80;99.90;;;;;;6094956;23;20018;-67
2021/12/10 12:32:58;;;;;;;20.35;14.98;;;11.90;99.90;;;;;;6094609;23;20042;-75
2021/12/10 12:35:30;;;;;;;20.35;15.63;;;11.80;99.90;;;;;;6069762;23;20560;-73
2021/12/10 12:38:16;;;;;;;21.73;14.63;;;11.70;99.90;;;;;;6068819;23;20098;-68
2021/12/10 12:41:36;;;;;;;19.08;14.73;;;11.60;99.90;;;;;;6094788;23;20313;-75
2021/12/10 12:44:23;;;;;;;24.80;14.98;;;11.30;99.90;;;;;;6080479;23;20089;-77
2021/12/10 12:47:14;;;;;;;18.60;14.15;;;11.10;99.90;;;;;;6094365;23;20038;-68
2021/12/10 12:49:48;;;;;;;22.15;15.00;;;11.10;99.90;;;;;;6094626;23;20041;-67
2021/12/10 12:52:21;;;;;;;24.80;14.10;;;11.00;99.90;;;;;;6094675;23;20064;-67
2021/12/10 12:55:06;;;;;;;23.05;14.07;;;11.10;99.90;;;;;;6095259;23;20308;-68
2021/12/10 12:57:58;;;;;;;19.95;13.75;;;11.00;99.90;;;;;;6094517;23;20370;-68
2021/12/10 13:00:50;;;;;;;18.52;13.23;;;11.00;99.90;;;;;;6095247;23;20025;-67
2021/12/10 13:03:20;;;;;;;19.50;13.60;;;11.10;99.90;;;;;;6094617;23;20010;-74
2021/12/10 13:06:24;;;;;;;21.35;13.65;;;11.10;99.90;;;;;;6094672;23;20018;-72
2021/12/10 13:09:16;;;;;;;19.25;13.13;;;11.20;99.90;;;;;;6094851;23;20010;-67
2021/12/10 13:12:00;;;;;;;20.08;12.75;;;11.30;99.90;;;;;;6094660;23;20025;-71
2021/12/10 13:14:35;;;;;;;22.75;13.18;;;11.10;99.90;;;;;;6095126;23;20100;-71
2021/12/10 13:17:13;;;;;;;23.55;14.65;;;11.10;99.90;;;;;;6094415;23;20018;-72
2021/12/10 13:19:41;;;;;;;24.25;13.88;;;11.10;99.90;;;;;;6094800;23;20022;-69
2021/12/10 13:22:30;;;;;;;19.27;13.88;;;11.00;99.90;;;;;;6069540;23;20056;-74
2021/12/10 13:25:03;;;;;;;19.13;12.75;;;11.30;99.90;;;;;;6095454;23;20090;-78
2021/12/10 13:27:32;;;;;;;21.65;14.63;;;11.40;99.90;;;;;;6096658;23;20361;-69